sensor_id;sensor_type;location;lat;lon;timestamp;P1;durP1;ratioP1;P2;durP2;ratioP2
11111;SDS011;5609;49.466;8.468;2023-10-09T00:01:51;12.10;;;7.13;;
11111;SDS011;5609;49.466;8.468;2023-10-09T00:04:19;12.37;;;7.50;;
11111;SDS011;5609;49.466;8.468;2023-10-09T00:06:46;13.50;;;7.80;;
11111;SDS011;5609;49.466;8.468;2023-10-09T00:09:14;15.40;;;7.10;;
11111;SDS011;5609;49.466;8.468;2023-10-09T00:12:05;13.30;;;7.37;;
11111;SDS011;5609;49.466;8.468;2023-10-09T00:14:35;12.80;;;7.47;;
11111;SDS011;5609;49.466;8.468;2023-10-09T00:17:05;10.70;;;7.27;;
11111;SDS011;5609;49.466;8.468;2023-10-09T00:19:42;11.83;;;6.77;;
11111;SDS011;5609;49.466;8.468;2023-10-09T00:22:12;11.37;;;6.80;;
11111;SDS011;5609;49.466;8.468;2023-10-09T00:24:45;10.27;;;6.83;;
11111;SDS011;5609;49.466;8.468;2023-10-09T00:27:15;9.33;;;6.57;;
11111;SDS011;5609;49.466;8.468;2023-10-09T00:29:44;12.53;;;6.70;;
11111;SDS011;5609;49.466;8.468;2023-10-09T00:32:14;10.63;;;6.83;;
11111;SDS011;5609;49.466;8.468;2023-10-09T00:34:47;16.17;;;8.60;;
11111;SDS011;5609;49.466;8.468;2023-10-09T00:37:15;17.67;;;9.30;;
11111;SDS011;5609;49.466;8.468;2023-10-09T00:39:48;11.13;;;7.20;;
11111;SDS011;5609;49.466;8.468;2023-10-09T00:42:21;11.27;;;7.03;;
11111;SDS011;5609;49.466;8.468;2023-10-09T00:44:52;9.70;;;6.30;;
11111;SDS011;5609;49.466;8.468;2023-10-09T00:47:21;9.90;;;6.77;;
11111;SDS011;5609;49.466;8.468;2023-10-09T00:49:52;10.27;;;7.03;;
11111;SDS011;5609;49.466;8.468;2023-10-09T00:52:24;12.60;;;7.37;;
11111;SDS011;5609;49.466;8.468;2023-10-09T00:54:56;11.90;;;6.90;;
11111;SDS011;5609;49.466;8.468;2023-10-09T00:57:27;12.70;;;6.37;;
11111;SDS011;5609;49.466;8.468;2023-10-09T00:59:54;11.07;;;6.57;;
11111;SDS011;5609;49.466;8.468;2023-10-09T01:02:26;12.43;;;6.50;;
11111;SDS011;5609;49.466;8.468;2023-10-09T01:05:01;10.40;;;6.70;;
11111;SDS011;5609;49.466;8.468;2023-10-09T01:07:36;9.40;;;6.10;;
11111;SDS011;5609;49.466;8.468;2023-10-09T01:10:05;13.80;;;6.60;;
11111;SDS011;5609;49.466;8.468;2023-10-09T01:12:53;11.77;;;6.97;;
11111;SDS011;5609;49.466;8.468;2023-10-09T01:15:20;9.67;;;6.90;;
11111;SDS011;5609;49.466;8.468;2023-10-09T01:18:03;14.83;;;8.23;;
11111;SDS011;5609;49.466;8.468;2023-10-09T01:20:33;11.90;;;7.20;;
11111;SDS011;5609;49.466;8.468;2023-10-09T01:23:08;11.63;;;7.00;;
11111;SDS011;5609;49.466;8.468;2023-10-09T01:25:35;10.20;;;6.00;;
11111;SDS011;5609;49.466;8.468;2023-10-09T01:28:08;11.10;;;6.57;;
11111;SDS011;5609;49.466;8.468;2023-10-09T01:30:35;10.17;;;7.50;;
11111;SDS011;5609;49.466;8.468;2023-10-09T01:33:06;11.70;;;7.20;;
11111;SDS011;5609;49.466;8.468;2023-10-09T01:35:40;11.90;;;7.03;;
11111;SDS011;5609;49.466;8.468;2023-10-09T01:38:14;12.53;;;5.93;;
11111;SDS011;5609;49.466;8.468;2023-10-09T01:40:41;12.03;;;6.40;;
11111;SDS011;5609;49.466;8.468;2023-10-09T01:43:16;12.33;;;6.30;;
11111;SDS011;5609;49.466;8.468;2023-10-09T01:45:44;9.53;;;6.50;;
11111;SDS011;5609;49.466;8.468;2023-10-09T01:48:11;12.00;;;7.53;;
11111;SDS011;5609;49.466;8.468;2023-10-09T01:50:40;11.40;;;6.53;;
11111;SDS011;5609;49.466;8.468;2023-10-09T01:53:07;11.37;;;6.77;;
11111;SDS011;5609;49.466;8.468;2023-10-09T01:55:36;11.20;;;6.70;;
11111;SDS011;5609;49.466;8.468;2023-10-09T01:58:05;12.17;;;6.90;;
11111;SDS011;5609;49.466;8.468;2023-10-09T02:00:42;9.77;;;6.33;;
11111;SDS011;5609;49.466;8.468;2023-10-09T02:03:13;9.60;;;6.03;;
11111;SDS011;5609;49.466;8.468;2023-10-09T02:05:41;8.93;;;6.07;;
11111;SDS011;5609;49.466;8.468;2023-10-09T02:08:08;9.43;;;6.30;;
11111;SDS011;5609;49.466;8.468;2023-10-09T02:10:37;11.43;;;6.40;;
11111;SDS011;5609;49.466;8.468;2023-10-09T02:13:06;8.40;;;6.20;;
11111;SDS011;5609;49.466;8.468;2023-10-09T02:15:35;13.43;;;6.80;;
11111;SDS011;5609;49.466;8.468;2023-10-09T02:18:18;10.83;;;6.43;;
11111;SDS011;5609;49.466;8.468;2023-10-09T02:21:05;12.67;;;6.37;;
11111;SDS011;5609;49.466;8.468;2023-10-09T02:23:38;14.70;;;6.63;;
11111;SDS011;5609;49.466;8.468;2023-10-09T02:26:13;10.77;;;6.53;;
11111;SDS011;5609;49.466;8.468;2023-10-09T02:28:44;11.20;;;6.73;;
11111;SDS011;5609;49.466;8.468;2023-10-09T02:31:17;10.20;;;6.57;;
11111;SDS011;5609;49.466;8.468;2023-10-09T02:33:47;10.50;;;6.70;;
11111;SDS011;5609;49.466;8.468;2023-10-09T02:36:16;10.80;;;6.20;;
11111;SDS011;5609;49.466;8.468;2023-10-09T02:38:43;12.53;;;6.77;;
11111;SDS011;5609;49.466;8.468;2023-10-09T02:41:15;11.43;;;6.10;;
11111;SDS011;5609;49.466;8.468;2023-10-09T02:43:47;10.63;;;6.50;;
11111;SDS011;5609;49.466;8.468;2023-10-09T02:46:20;10.07;;;5.90;;
11111;SDS011;5609;49.466;8.468;2023-10-09T02:48:54;11.30;;;6.40;;
11111;SDS011;5609;49.466;8.468;2023-10-09T02:51:21;12.63;;;6.53;;
11111;SDS011;5609;49.466;8.468;2023-10-09T02:53:58;11.03;;;6.33;;
11111;SDS011;5609;49.466;8.468;2023-10-09T02:56:33;10.33;;;6.60;;
11111;SDS011;5609;49.466;8.468;2023-10-09T02:59:02;11.67;;;6.87;;
11111;SDS011;5609;49.466;8.468;2023-10-09T03:01:31;9.33;;;6.10;;
11111;SDS011;5609;49.466;8.468;2023-10-09T03:03:59;11.50;;;6.10;;
11111;SDS011;5609;49.466;8.468;2023-10-09T03:06:27;10.00;;;6.30;;
11111;SDS011;5609;49.466;8.468;2023-10-09T03:08:56;12.67;;;6.13;;
11111;SDS011;5609;49.466;8.468;2023-10-09T03:11:23;11.63;;;6.63;;
11111;SDS011;5609;49.466;8.468;2023-10-09T03:13:53;9.90;;;6.60;;
11111;SDS011;5609;49.466;8.468;2023-10-09T03:16:21;10.13;;;6.10;;
11111;SDS011;5609;49.466;8.468;2023-10-09T03:18:49;9.87;;;6.57;;
11111;SDS011;5609;49.466;8.468;2023-10-09T03:21:17;10.17;;;6.00;;
11111;SDS011;5609;49.466;8.468;2023-10-09T03:23:45;9.97;;;6.43;;
11111;SDS011;5609;49.466;8.468;2023-10-09T03:26:14;8.43;;;6.07;;
11111;SDS011;5609;49.466;8.468;2023-10-09T03:28:42;11.90;;;6.20;;
11111;SDS011;5609;49.466;8.468;2023-10-09T03:31:11;8.97;;;6.03;;
11111;SDS011;5609;49.466;8.468;2023-10-09T03:33:38;13.47;;;7.03;;
11111;SDS011;5609;49.466;8.468;2023-10-09T03:36:05;12.50;;;7.03;;
11111;SDS011;5609;49.466;8.468;2023-10-09T03:38:34;8.90;;;6.20;;
11111;SDS011;5609;49.466;8.468;2023-10-09T03:41:01;11.03;;;6.60;;
11111;SDS011;5609;49.466;8.468;2023-10-09T03:43:32;8.77;;;6.20;;
11111;SDS011;5609;49.466;8.468;2023-10-09T03:46:02;11.77;;;6.67;;
11111;SDS011;5609;49.466;8.468;2023-10-09T03:48:31;9.23;;;6.20;;
11111;SDS011;5609;49.466;8.468;2023-10-09T03:51:01;11.03;;;6.50;;
11111;SDS011;5609;49.466;8.468;2023-10-09T03:53:34;10.63;;;6.37;;
11111;SDS011;5609;49.466;8.468;2023-10-09T03:56:04;9.43;;;6.00;;
11111;SDS011;5609;49.466;8.468;2023-10-09T03:58:36;8.83;;;6.50;;
11111;SDS011;5609;49.466;8.468;2023-10-09T04:01:06;12.40;;;6.50;;
11111;SDS011;5609;49.466;8.468;2023-10-09T04:03:37;9.77;;;6.70;;
11111;SDS011;5609;49.466;8.468;2023-10-09T04:06:04;8.63;;;6.07;;
11111;SDS011;5609;49.466;8.468;2023-10-09T04:08:34;9.17;;;6.20;;
11111;SDS011;5609;49.466;8.468;2023-10-09T04:11:04;8.93;;;6.23;;
11111;SDS011;5609;49.466;8.468;2023-10-09T04:13:41;10.73;;;5.83;;
11111;SDS011;5609;49.466;8.468;2023-10-09T04:16:10;9.70;;;6.23;;
11111;SDS011;5609;49.466;8.468;2023-10-09T04:19:00;14.23;;;6.40;;
11111;SDS011;5609;49.466;8.468;2023-10-09T04:21:31;10.80;;;6.47;;
11111;SDS011;5609;49.466;8.468;2023-10-09T04:24:01;14.33;;;6.43;;
11111;SDS011;5609;49.466;8.468;2023-10-09T04:26:46;10.17;;;6.10;;
11111;SDS011;5609;49.466;8.468;2023-10-09T04:29:14;10.43;;;6.00;;
11111;SDS011;5609;49.466;8.468;2023-10-09T04:31:43;10.90;;;5.83;;
11111;SDS011;5609;49.466;8.468;2023-10-09T04:34:11;12.47;;;6.23;;
11111;SDS011;5609;49.466;8.468;2023-10-09T04:36:47;9.13;;;6.03;;
11111;SDS011;5609;49.466;8.468;2023-10-09T04:39:16;10.70;;;6.23;;
11111;SDS011;5609;49.466;8.468;2023-10-09T04:42:11;10.50;;;5.90;;
11111;SDS011;5609;49.466;8.468;2023-10-09T04:44:56;11.17;;;6.27;;
11111;SDS011;5609;49.466;8.468;2023-10-09T04:47:40;10.80;;;6.97;;
11111;SDS011;5609;49.466;8.468;2023-10-09T04:50:25;9.97;;;5.80;;
11111;SDS011;5609;49.466;8.468;2023-10-09T04:53:16;13.23;;;6.53;;
11111;SDS011;5609;49.466;8.468;2023-10-09T04:55:54;12.73;;;6.03;;
11111;SDS011;5609;49.466;8.468;2023-10-09T04:58:20;10.73;;;6.13;;
11111;SDS011;5609;49.466;8.468;2023-10-09T05:00:51;11.03;;;5.80;;
11111;SDS011;5609;49.466;8.468;2023-10-09T05:03:37;17.17;;;6.83;;
11111;SDS011;5609;49.466;8.468;2023-10-09T05:06:27;11.20;;;6.10;;
11111;SDS011;5609;49.466;8.468;2023-10-09T05:09:19;11.03;;;6.00;;
11111;SDS011;5609;49.466;8.468;2023-10-09T05:11:46;9.80;;;6.00;;
11111;SDS011;5609;49.466;8.468;2023-10-09T05:14:25;10.77;;;5.67;;
11111;SDS011;5609;49.466;8.468;2023-10-09T05:17:04;12.53;;;6.60;;
11111;SDS011;5609;49.466;8.468;2023-10-09T05:20:06;13.83;;;6.50;;
11111;SDS011;5609;49.466;8.468;2023-10-09T05:22:52;11.97;;;6.90;;
11111;SDS011;5609;49.466;8.468;2023-10-09T05:25:24;14.40;;;7.53;;
11111;SDS011;5609;49.466;8.468;2023-10-09T05:28:20;11.70;;;6.43;;
11111;SDS011;5609;49.466;8.468;2023-10-09T05:31:13;11.57;;;5.97;;
11111;SDS011;5609;49.466;8.468;2023-10-09T05:33:54;12.47;;;7.23;;
11111;SDS011;5609;49.466;8.468;2023-10-09T05:36:45;13.23;;;6.43;;
11111;SDS011;5609;49.466;8.468;2023-10-09T05:42:08;12.47;;;7.07;;
11111;SDS011;5609;49.466;8.468;2023-10-09T05:44:35;17.50;;;7.70;;
11111;SDS011;5609;49.466;8.468;2023-10-09T05:47:41;13.03;;;7.20;;
11111;SDS011;5609;49.466;8.468;2023-10-09T05:50:18;11.63;;;7.20;;
11111;SDS011;5609;49.466;8.468;2023-10-09T05:53:03;15.37;;;7.30;;
11111;SDS011;5609;49.466;8.468;2023-10-09T05:55:34;15.57;;;7.37;;
11111;SDS011;5609;49.466;8.468;2023-10-09T05:58:21;13.93;;;7.03;;
11111;SDS011;5609;49.466;8.468;2023-10-09T06:01:02;16.00;;;7.20;;
11111;SDS011;5609;49.466;8.468;2023-10-09T06:03:46;14.60;;;7.20;;
11111;SDS011;5609;49.466;8.468;2023-10-09T06:06:37;14.87;;;7.03;;
11111;SDS011;5609;49.466;8.468;2023-10-09T06:09:10;13.37;;;6.90;;
11111;SDS011;5609;49.466;8.468;2023-10-09T06:11:51;12.83;;;7.00;;
11111;SDS011;5609;49.466;8.468;2023-10-09T06:14:42;14.60;;;6.83;;
11111;SDS011;5609;49.466;8.468;2023-10-09T06:17:14;12.77;;;6.67;;
11111;SDS011;5609;49.466;8.468;2023-10-09T06:19:52;13.07;;;6.67;;
11111;SDS011;5609;49.466;8.468;2023-10-09T06:22:24;15.90;;;6.83;;
11111;SDS011;5609;49.466;8.468;2023-10-09T06:25:10;14.43;;;6.57;;
11111;SDS011;5609;49.466;8.468;2023-10-09T06:27:43;13.97;;;6.80;;
11111;SDS011;5609;49.466;8.468;2023-10-09T06:30:35;13.40;;;6.30;;
11111;SDS011;5609;49.466;8.468;2023-10-09T06:33:09;15.80;;;6.40;;
11111;SDS011;5609;49.466;8.468;2023-10-09T06:35:45;14.07;;;6.13;;
11111;SDS011;5609;49.466;8.468;2023-10-09T06:38:18;13.13;;;6.37;;
11111;SDS011;5609;49.466;8.468;2023-10-09T06:40:48;11.87;;;5.87;;
11111;SDS011;5609;49.466;8.468;2023-10-09T06:43:33;12.57;;;5.90;;
11111;SDS011;5609;49.466;8.468;2023-10-09T06:46:14;10.00;;;5.50;;
11111;SDS011;5609;49.466;8.468;2023-10-09T06:49:10;15.77;;;6.13;;
11111;SDS011;5609;49.466;8.468;2023-10-09T06:51:58;12.80;;;6.20;;
11111;SDS011;5609;49.466;8.468;2023-10-09T06:54:40;13.23;;;6.03;;
11111;SDS011;5609;49.466;8.468;2023-10-09T06:57:15;10.77;;;5.90;;
11111;SDS011;5609;49.466;8.468;2023-10-09T07:00:01;13.47;;;6.13;;
11111;SDS011;5609;49.466;8.468;2023-10-09T07:03:02;11.83;;;5.70;;
11111;SDS011;5609;49.466;8.468;2023-10-09T07:05:36;11.33;;;6.13;;
11111;SDS011;5609;49.466;8.468;2023-10-09T07:08:24;11.70;;;6.30;;
11111;SDS011;5609;49.466;8.468;2023-10-09T07:11:02;13.53;;;6.27;;
11111;SDS011;5609;49.466;8.468;2023-10-09T07:13:43;10.73;;;6.07;;
11111;SDS011;5609;49.466;8.468;2023-10-09T07:16:19;11.00;;;5.77;;
11111;SDS011;5609;49.466;8.468;2023-10-09T07:18:55;9.73;;;5.40;;
11111;SDS011;5609;49.466;8.468;2023-10-09T07:21:34;10.73;;;5.93;;
11111;SDS011;5609;49.466;8.468;2023-10-09T07:24:04;12.23;;;6.10;;
11111;SDS011;5609;49.466;8.468;2023-10-09T07:26:42;10.77;;;5.63;;
11111;SDS011;5609;49.466;8.468;2023-10-09T07:29:19;13.67;;;5.97;;
11111;SDS011;5609;49.466;8.468;2023-10-09T07:31:49;12.90;;;5.87;;
11111;SDS011;5609;49.466;8.468;2023-10-09T07:34:24;11.07;;;5.53;;
11111;SDS011;5609;49.466;8.468;2023-10-09T07:36:56;10.93;;;6.07;;
11111;SDS011;5609;49.466;8.468;2023-10-09T07:39:30;12.27;;;5.47;;
11111;SDS011;5609;49.466;8.468;2023-10-09T07:42:01;9.17;;;5.70;;
11111;SDS011;5609;49.466;8.468;2023-10-09T07:44:40;12.90;;;5.40;;
11111;SDS011;5609;49.466;8.468;2023-10-09T07:47:11;10.63;;;5.40;;
11111;SDS011;5609;49.466;8.468;2023-10-09T07:49:49;11.50;;;5.70;;
11111;SDS011;5609;49.466;8.468;2023-10-09T07:52:24;11.87;;;5.73;;
11111;SDS011;5609;49.466;8.468;2023-10-09T07:54:52;11.70;;;6.10;;
11111;SDS011;5609;49.466;8.468;2023-10-09T07:57:27;13.40;;;5.30;;
11111;SDS011;5609;49.466;8.468;2023-10-09T08:00:03;10.23;;;4.97;;
11111;SDS011;5609;49.466;8.468;2023-10-09T08:02:37;9.23;;;5.13;;
11111;SDS011;5609;49.466;8.468;2023-10-09T08:05:08;11.73;;;5.67;;
11111;SDS011;5609;49.466;8.468;2023-10-09T08:07:47;14.63;;;5.87;;
11111;SDS011;5609;49.466;8.468;2023-10-09T08:10:22;11.37;;;6.17;;
11111;SDS011;5609;49.466;8.468;2023-10-09T08:13:07;11.43;;;5.00;;
11111;SDS011;5609;49.466;8.468;2023-10-09T08:16:01;10.83;;;5.20;;
11111;SDS011;5609;49.466;8.468;2023-10-09T08:18:29;10.23;;;5.43;;
11111;SDS011;5609;49.466;8.468;2023-10-09T08:21:01;15.30;;;5.60;;
11111;SDS011;5609;49.466;8.468;2023-10-09T08:24:06;11.03;;;4.80;;
11111;SDS011;5609;49.466;8.468;2023-10-09T08:26:53;11.90;;;5.50;;
11111;SDS011;5609;49.466;8.468;2023-10-09T08:29:42;10.57;;;5.70;;
11111;SDS011;5609;49.466;8.468;2023-10-09T08:32:13;10.73;;;5.37;;
11111;SDS011;5609;49.466;8.468;2023-10-09T08:35:04;14.57;;;5.70;;
11111;SDS011;5609;49.466;8.468;2023-10-09T08:37:46;11.97;;;5.73;;
11111;SDS011;5609;49.466;8.468;2023-10-09T08:40:14;11.83;;;5.43;;
11111;SDS011;5609;49.466;8.468;2023-10-09T08:42:46;12.43;;;5.40;;
11111;SDS011;5609;49.466;8.468;2023-10-09T08:45:15;10.30;;;5.10;;
11111;SDS011;5609;49.466;8.468;2023-10-09T08:47:50;14.97;;;5.33;;
11111;SDS011;5609;49.466;8.468;2023-10-09T08:50:19;12.07;;;5.30;;
11111;SDS011;5609;49.466;8.468;2023-10-09T08:52:48;12.23;;;4.97;;
11111;SDS011;5609;49.466;8.468;2023-10-09T08:55:17;11.07;;;4.60;;
11111;SDS011;5609;49.466;8.468;2023-10-09T08:57:46;10.63;;;5.00;;
11111;SDS011;5609;49.466;8.468;2023-10-09T09:00:16;10.50;;;4.83;;
11111;SDS011;5609;49.466;8.468;2023-10-09T09:02:50;9.57;;;4.77;;
11111;SDS011;5609;49.466;8.468;2023-10-09T09:05:31;14.87;;;5.07;;
11111;SDS011;5609;49.466;8.468;2023-10-09T09:08:25;11.93;;;4.70;;
11111;SDS011;5609;49.466;8.468;2023-10-09T09:10:56;12.90;;;5.00;;
11111;SDS011;5609;49.466;8.468;2023-10-09T09:13:30;9.87;;;4.87;;
11111;SDS011;5609;49.466;8.468;2023-10-09T09:15:59;13.17;;;4.70;;
11111;SDS011;5609;49.466;8.468;2023-10-09T09:18:27;12.30;;;4.63;;
11111;SDS011;5609;49.466;8.468;2023-10-09T09:21:11;11.83;;;4.90;;
11111;SDS011;5609;49.466;8.468;2023-10-09T09:23:55;11.63;;;4.67;;
11111;SDS011;5609;49.466;8.468;2023-10-09T09:26:33;11.93;;;4.87;;
11111;SDS011;5609;49.466;8.468;2023-10-09T09:29:03;9.93;;;4.97;;
11111;SDS011;5609;49.466;8.468;2023-10-09T09:31:33;12.97;;;4.97;;
11111;SDS011;5609;49.466;8.468;2023-10-09T09:34:06;11.00;;;4.80;;
11111;SDS011;5609;49.466;8.468;2023-10-09T09:36:51;12.43;;;5.00;;
11111;SDS011;5609;49.466;8.468;2023-10-09T09:39:27;9.33;;;4.13;;
11111;SDS011;5609;49.466;8.468;2023-10-09T09:41:55;10.90;;;4.60;;
11111;SDS011;5609;49.466;8.468;2023-10-09T09:44:28;10.07;;;4.63;;
11111;SDS011;5609;49.466;8.468;2023-10-09T09:46:58;13.20;;;4.60;;
11111;SDS011;5609;49.466;8.468;2023-10-09T09:49:27;12.13;;;4.77;;
11111;SDS011;5609;49.466;8.468;2023-10-09T09:51:57;9.37;;;4.67;;
11111;SDS011;5609;49.466;8.468;2023-10-09T09:54:40;12.17;;;4.97;;
11111;SDS011;5609;49.466;8.468;2023-10-09T09:57:08;10.73;;;4.40;;
11111;SDS011;5609;49.466;8.468;2023-10-09T09:59:37;7.93;;;4.17;;
11111;SDS011;5609;49.466;8.468;2023-10-09T10:02:16;10.43;;;3.80;;
11111;SDS011;5609;49.466;8.468;2023-10-09T10:04:45;10.23;;;4.83;;
11111;SDS011;5609;49.466;8.468;2023-10-09T10:07:15;11.00;;;4.60;;
11111;SDS011;5609;49.466;8.468;2023-10-09T10:09:48;9.80;;;4.57;;
11111;SDS011;5609;49.466;8.468;2023-10-09T10:15:13;13.27;;;4.53;;
11111;SDS011;5609;49.466;8.468;2023-10-09T10:20:24;9.53;;;4.43;;
11111;SDS011;5609;49.466;8.468;2023-10-09T10:25:48;12.47;;;4.47;;
11111;SDS011;5609;49.466;8.468;2023-10-09T10:28:16;10.97;;;4.87;;
11111;SDS011;5609;49.466;8.468;2023-10-09T10:30:53;11.37;;;4.60;;
11111;SDS011;5609;49.466;8.468;2023-10-09T10:36:28;7.80;;;4.53;;
11111;SDS011;5609;49.466;8.468;2023-10-09T10:38:58;10.07;;;4.47;;
11111;SDS011;5609;49.466;8.468;2023-10-09T10:41:43;12.43;;;4.77;;
11111;SDS011;5609;49.466;8.468;2023-10-09T10:44:45;10.10;;;4.47;;
11111;SDS011;5609;49.466;8.468;2023-10-09T10:47:18;9.20;;;4.40;;
11111;SDS011;5609;49.466;8.468;2023-10-09T10:49:57;9.73;;;4.47;;
11111;SDS011;5609;49.466;8.468;2023-10-09T10:52:33;12.73;;;4.40;;
11111;SDS011;5609;49.466;8.468;2023-10-09T10:55:08;8.97;;;3.90;;
11111;SDS011;5609;49.466;8.468;2023-10-09T10:57:43;8.50;;;4.33;;
11111;SDS011;5609;49.466;8.468;2023-10-09T11:00:27;10.53;;;4.80;;
11111;SDS011;5609;49.466;8.468;2023-10-09T11:03:16;10.83;;;4.40;;
11111;SDS011;5609;49.466;8.468;2023-10-09T11:05:48;9.07;;;4.20;;
11111;SDS011;5609;49.466;8.468;2023-10-09T11:08:23;7.73;;;4.27;;
11111;SDS011;5609;49.466;8.468;2023-10-09T11:10:52;9.73;;;4.67;;
11111;SDS011;5609;49.466;8.468;2023-10-09T11:13:26;9.73;;;4.47;;
11111;SDS011;5609;49.466;8.468;2023-10-09T11:15:57;10.20;;;4.90;;
11111;SDS011;5609;49.466;8.468;2023-10-09T11:18:40;9.93;;;4.90;;
11111;SDS011;5609;49.466;8.468;2023-10-09T11:21:12;10.10;;;5.70;;
11111;SDS011;5609;49.466;8.468;2023-10-09T11:23:56;11.23;;;5.00;;
11111;SDS011;5609;49.466;8.468;2023-10-09T11:26:34;10.60;;;4.90;;
11111;SDS011;5609;49.466;8.468;2023-10-09T11:29:05;10.13;;;4.83;;
11111;SDS011;5609;49.466;8.468;2023-10-09T11:31:41;11.70;;;4.63;;
11111;SDS011;5609;49.466;8.468;2023-10-09T11:34:20;10.37;;;4.47;;
11111;SDS011;5609;49.466;8.468;2023-10-09T11:36:54;8.53;;;4.20;;
11111;SDS011;5609;49.466;8.468;2023-10-09T11:39:26;14.43;;;5.17;;
11111;SDS011;5609;49.466;8.468;2023-10-09T11:42:02;10.23;;;4.73;;
11111;SDS011;5609;49.466;8.468;2023-10-09T11:44:38;10.10;;;4.97;;
11111;SDS011;5609;49.466;8.468;2023-10-09T11:47:07;7.90;;;4.33;;
11111;SDS011;5609;49.466;8.468;2023-10-09T11:49:49;10.50;;;4.40;;
11111;SDS011;5609;49.466;8.468;2023-10-09T11:52:23;11.20;;;4.70;;
11111;SDS011;5609;49.466;8.468;2023-10-09T11:55:03;10.17;;;4.50;;
11111;SDS011;5609;49.466;8.468;2023-10-09T11:57:31;10.70;;;4.97;;
11111;SDS011;5609;49.466;8.468;2023-10-09T11:59:59;9.53;;;4.17;;
11111;SDS011;5609;49.466;8.468;2023-10-09T12:02:27;10.63;;;4.43;;
11111;SDS011;5609;49.466;8.468;2023-10-09T12:04:56;9.23;;;4.33;;
11111;SDS011;5609;49.466;8.468;2023-10-09T12:07:23;9.20;;;4.30;;
11111;SDS011;5609;49.466;8.468;2023-10-09T12:09:52;8.20;;;4.80;;
11111;SDS011;5609;49.466;8.468;2023-10-09T12:12:21;8.83;;;4.70;;
11111;SDS011;5609;49.466;8.468;2023-10-09T12:14:51;10.53;;;4.20;;
11111;SDS011;5609;49.466;8.468;2023-10-09T12:17:18;12.00;;;4.57;;
11111;SDS011;5609;49.466;8.468;2023-10-09T12:19:50;8.00;;;4.13;;
11111;SDS011;5609;49.466;8.468;2023-10-09T12:22:17;8.50;;;4.10;;
11111;SDS011;5609;49.466;8.468;2023-10-09T12:24:46;6.30;;;4.50;;
11111;SDS011;5609;49.466;8.468;2023-10-09T12:27:13;5.93;;;4.23;;
11111;SDS011;5609;49.466;8.468;2023-10-09T12:29:45;10.30;;;4.60;;
11111;SDS011;5609;49.466;8.468;2023-10-09T12:32:13;8.70;;;4.37;;
11111;SDS011;5609;49.466;8.468;2023-10-09T12:34:44;8.17;;;4.60;;
11111;SDS011;5609;49.466;8.468;2023-10-09T12:37:16;8.10;;;4.50;;
11111;SDS011;5609;49.466;8.468;2023-10-09T12:39:45;8.63;;;4.27;;
11111;SDS011;5609;49.466;8.468;2023-10-09T12:42:12;6.87;;;4.57;;
11111;SDS011;5609;49.466;8.468;2023-10-09T12:44:42;7.33;;;4.13;;
11111;SDS011;5609;49.466;8.468;2023-10-09T12:47:09;9.10;;;4.60;;
11111;SDS011;5609;49.466;8.468;2023-10-09T12:49:37;8.70;;;4.37;;
11111;SDS011;5609;49.466;8.468;2023-10-09T12:52:06;9.23;;;4.40;;
11111;SDS011;5609;49.466;8.468;2023-10-09T12:54:41;7.83;;;4.47;;
11111;SDS011;5609;49.466;8.468;2023-10-09T12:57:11;10.60;;;4.27;;
11111;SDS011;5609;49.466;8.468;2023-10-09T12:59:39;5.57;;;4.37;;
11111;SDS011;5609;49.466;8.468;2023-10-09T13:02:10;8.83;;;4.60;;
11111;SDS011;5609;49.466;8.468;2023-10-09T13:04:37;9.13;;;4.60;;
11111;SDS011;5609;49.466;8.468;2023-10-09T13:07:07;7.77;;;4.80;;
11111;SDS011;5609;49.466;8.468;2023-10-09T13:09:34;12.43;;;4.97;;
11111;SDS011;5609;49.466;8.468;2023-10-09T13:12:08;9.83;;;4.53;;
11111;SDS011;5609;49.466;8.468;2023-10-09T13:14:42;7.70;;;4.63;;
11111;SDS011;5609;49.466;8.468;2023-10-09T13:17:10;9.77;;;4.60;;
11111;SDS011;5609;49.466;8.468;2023-10-09T13:19:38;7.43;;;4.47;;
11111;SDS011;5609;49.466;8.468;2023-10-09T13:22:05;8.63;;;4.40;;
11111;SDS011;5609;49.466;8.468;2023-10-09T13:24:38;8.37;;;4.70;;
11111;SDS011;5609;49.466;8.468;2023-10-09T13:27:05;7.27;;;4.33;;
11111;SDS011;5609;49.466;8.468;2023-10-09T13:29:36;7.63;;;4.97;;
11111;SDS011;5609;49.466;8.468;2023-10-09T13:32:04;7.37;;;4.33;;
11111;SDS011;5609;49.466;8.468;2023-10-09T13:34:38;7.33;;;4.57;;
11111;SDS011;5609;49.466;8.468;2023-10-09T13:37:09;7.57;;;4.73;;
11111;SDS011;5609;49.466;8.468;2023-10-09T13:39:39;6.37;;;4.43;;
11111;SDS011;5609;49.466;8.468;2023-10-09T13:42:17;7.17;;;4.40;;
11111;SDS011;5609;49.466;8.468;2023-10-09T13:44:45;7.93;;;4.40;;
11111;SDS011;5609;49.466;8.468;2023-10-09T13:47:14;8.13;;;4.30;;
11111;SDS011;5609;49.466;8.468;2023-10-09T13:49:46;10.60;;;4.50;;
11111;SDS011;5609;49.466;8.468;2023-10-09T13:52:15;11.17;;;4.77;;
11111;SDS011;5609;49.466;8.468;2023-10-09T13:54:44;7.67;;;4.43;;
11111;SDS011;5609;49.466;8.468;2023-10-09T13:57:13;7.83;;;4.27;;
11111;SDS011;5609;49.466;8.468;2023-10-09T13:59:40;7.10;;;4.50;;
11111;SDS011;5609;49.466;8.468;2023-10-09T14:02:15;7.43;;;4.70;;
11111;SDS011;5609;49.466;8.468;2023-10-09T14:04:46;7.37;;;4.50;;
11111;SDS011;5609;49.466;8.468;2023-10-09T14:07:13;6.83;;;4.70;;
11111;SDS011;5609;49.466;8.468;2023-10-09T14:09:42;6.80;;;4.20;;
11111;SDS011;5609;49.466;8.468;2023-10-09T14:12:20;6.63;;;4.07;;
11111;SDS011;5609;49.466;8.468;2023-10-09T14:14:49;10.53;;;4.47;;
11111;SDS011;5609;49.466;8.468;2023-10-09T14:17:20;7.57;;;4.20;;
11111;SDS011;5609;49.466;8.468;2023-10-09T14:19:50;8.13;;;4.40;;
11111;SDS011;5609;49.466;8.468;2023-10-09T14:22:18;7.43;;;4.30;;
11111;SDS011;5609;49.466;8.468;2023-10-09T14:24:45;8.10;;;4.13;;
11111;SDS011;5609;49.466;8.468;2023-10-09T14:27:13;10.93;;;4.57;;
11111;SDS011;5609;49.466;8.468;2023-10-09T14:29:43;10.10;;;4.40;;
11111;SDS011;5609;49.466;8.468;2023-10-09T14:32:10;7.43;;;4.23;;
11111;SDS011;5609;49.466;8.468;2023-10-09T14:34:39;9.87;;;4.70;;
11111;SDS011;5609;49.466;8.468;2023-10-09T14:37:11;7.37;;;4.57;;
11111;SDS011;5609;49.466;8.468;2023-10-09T14:39:40;7.43;;;4.63;;
11111;SDS011;5609;49.466;8.468;2023-10-09T14:42:07;7.80;;;4.60;;
11111;SDS011;5609;49.466;8.468;2023-10-09T14:44:35;7.57;;;4.63;;
11111;SDS011;5609;49.466;8.468;2023-10-09T14:47:03;8.27;;;4.93;;
11111;SDS011;5609;49.466;8.468;2023-10-09T14:49:31;6.53;;;4.30;;
11111;SDS011;5609;49.466;8.468;2023-10-09T14:52:03;6.57;;;4.40;;
11111;SDS011;5609;49.466;8.468;2023-10-09T14:54:33;6.07;;;4.43;;
11111;SDS011;5609;49.466;8.468;2023-10-09T14:57:00;8.77;;;4.40;;
11111;SDS011;5609;49.466;8.468;2023-10-09T14:59:30;6.97;;;4.60;;
11111;SDS011;5609;49.466;8.468;2023-10-09T15:01:58;7.13;;;4.67;;
11111;SDS011;5609;49.466;8.468;2023-10-09T15:04:25;6.23;;;4.50;;
11111;SDS011;5609;49.466;8.468;2023-10-09T15:06:52;6.60;;;4.10;;
11111;SDS011;5609;49.466;8.468;2023-10-09T15:09:20;9.57;;;4.90;;
11111;SDS011;5609;49.466;8.468;2023-10-09T15:11:48;10.23;;;4.53;;
11111;SDS011;5609;49.466;8.468;2023-10-09T15:14:15;8.83;;;4.57;;
11111;SDS011;5609;49.466;8.468;2023-10-09T15:16:43;7.07;;;4.70;;
11111;SDS011;5609;49.466;8.468;2023-10-09T15:19:11;10.27;;;5.97;;
11111;SDS011;5609;49.466;8.468;2023-10-09T15:21:38;7.87;;;4.80;;
11111;SDS011;5609;49.466;8.468;2023-10-09T15:24:09;6.50;;;4.57;;
11111;SDS011;5609;49.466;8.468;2023-10-09T15:26:38;6.57;;;4.77;;
11111;SDS011;5609;49.466;8.468;2023-10-09T15:29:05;5.97;;;4.70;;
11111;SDS011;5609;49.466;8.468;2023-10-09T15:31:34;6.57;;;4.43;;
11111;SDS011;5609;49.466;8.468;2023-10-09T15:34:01;5.93;;;4.73;;
11111;SDS011;5609;49.466;8.468;2023-10-09T15:36:33;7.47;;;4.70;;
11111;SDS011;5609;49.466;8.468;2023-10-09T15:39:00;6.93;;;4.70;;
11111;SDS011;5609;49.466;8.468;2023-10-09T15:41:28;9.93;;;4.87;;
11111;SDS011;5609;49.466;8.468;2023-10-09T15:43:57;7.57;;;4.80;;
11111;SDS011;5609;49.466;8.468;2023-10-09T15:46:26;10.80;;;5.40;;